Time;durP1;ratioP1;P1;durP2;ratioP2;P2;SDS_P1;SDS_P2;PMS_P1;PMS_P2;Temp;Humidity;BMP_temperature;BMP_pressure;BME280_temperature;BME280_humidity;BME280_pressure;Samples;Min_cycle;Max_cycle;Signal;HPM_P1;HPM_P2
2023/03/11 00:01:04;;;;;;;;;;;11.70;49.60;;;;;;4994371;28;19918;-58
2023/03/11 00:06:35;;;;;;;;;;;11.70;49.80;;;;;;5015103;28;20375;-57
2023/03/11 00:09:01;;;;;;;;;;;11.70;49.80;;;;;;5008260;23;19972;-74
2023/03/11 00:11:27;;;;;;;;;;;11.70;50.00;;;;;;5000997;28;19956;-74
2023/03/11 00:13:52;;;;;;;;;;;11.70;50.00;;;;;;5022621;28;19913;-73
2023/03/11 00:16:17;;;;;;;;;;;11.70;50.00;;;;;;5021585;28;20008;-73
2023/03/11 00:18:43;;;;;;;;;;;11.60;50.00;;;;;;5019172;28;20370;-73
2023/03/11 00:21:15;;;;;;;;;;;11.60;50.00;;;;;;5020502;28;20282;-73
2023/03/11 00:23:41;;;;;;;;;;;11.60;50.00;;;;;;5001585;28;20366;-73
2023/03/11 00:26:06;;;;;;;;;;;11.60;50.10;;;;;;5022630;28;19932;-73
2023/03/11 00:28:32;;;;;;;;;;;11.60;50.10;;;;;;5014726;28;19964;-73
2023/03/11 00:30:57;;;;;;;;;;;11.60;50.10;;;;;;5000614;28;19944;-72
2023/03/11 00:33:23;;;;;;;;;;;11.60;50.10;;;;;;5004218;28;19963;-73
2023/03/11 00:35:48;;;;;;;;;;;11.60;50.20;;;;;;5025655;28;19941;-73
2023/03/11 00:38:14;;;;;;;;;;;11.50;50.10;;;;;;5001638;28;20350;-73
2023/03/11 00:40:40;;;;;;;;;;;11.60;50.30;;;;;;4993643;28;19910;-73
2023/03/11 00:43:05;;;;;;;;;;;11.60;50.40;;;;;;4982036;28;19996;-73
2023/03/11 00:45:31;;;;;;;;;;;11.50;50.20;;;;;;4996900;28;19920;-73
2023/03/11 00:47:56;;;;;;;;;;;11.50;50.30;;;;;;5010743;28;19913;-73
2023/03/11 00:50:22;;;;;;;;;;;11.50;50.60;;;;;;5007445;28;19929;-73
2023/03/11 00:52:48;;;;;;;;;;;11.40;50.40;;;;;;4994238;28;19936;-73
2023/03/11 00:55:14;;;;;;;;;;;11.50;50.50;;;;;;4991846;28;19928;-73
2023/03/11 00:57:40;;;;;;;;;;;11.40;50.50;;;;;;5010918;28;20378;-73
2023/03/11 01:00:10;;;;;;;;;;;11.40;50.40;;;;;;4993591;28;19917;-73
2023/03/11 01:02:36;;;;;;;;;;;11.40;50.60;;;;;;5003970;28;19913;-73
2023/03/11 01:05:01;;;;;;;;;;;11.40;50.60;;;;;;5009668;28;19910;-73
2023/03/11 01:07:26;;;;;;;;;;;11.30;50.60;;;;;;4992855;28;19925;-73
2023/03/11 01:09:52;;;;;;;;;;;11.40;50.60;;;;;;5012234;28;19917;-73
2023/03/11 01:12:17;;;;;;;;;;;11.40;50.70;;;;;;5014498;28;19970;-73
2023/03/11 01:14:43;;;;;;;;;;;11.30;50.60;;;;;;5013940;28;20365;-73
2023/03/11 01:17:08;;;;;;;;;;;11.30;50.60;;;;;;5026072;28;20304;-73
2023/03/11 01:19:34;;;;;;;;;;;11.30;50.70;;;;;;5030141;28;19981;-73
2023/03/11 01:21:59;;;;;;;;;;;11.30;50.80;;;;;;4997729;28;20312;-73
2023/03/11 01:24:25;;;;;;;;;;;11.20;50.80;;;;;;5002494;28;19913;-73
2023/03/11 01:26:50;;;;;;;;;;;11.20;50.90;;;;;;5024022;28;19921;-73
2023/03/11 01:29:16;;;;;;;;;;;11.20;50.90;;;;;;5015158;28;20002;-73
2023/03/11 01:31:41;;;;;;;;;;;11.20;50.90;;;;;;5011782;28;20369;-73
2023/03/11 01:34:06;;;;;;;;;;;11.20;51.00;;;;;;4997394;28;20355;-73
2023/03/11 01:36:32;;;;;;;;;;;11.10;50.90;;;;;;5002867;28;20316;-73
2023/03/11 01:38:57;;;;;;;;;;;11.10;51.00;;;;;;5010790;28;20209;-73
2023/03/11 01:41:23;;;;;;;;;;;11.10;50.90;;;;;;5008419;28;19920;-73
2023/03/11 01:43:50;;;;;;;;;;;11.20;51.00;;;;;;5012454;28;19918;-73
2023/03/11 01:46:30;;;;;;;;;;;11.10;51.00;;;;;;5013847;28;19914;-72
2023/03/11 01:48:56;;;;;;;;;;;11.10;50.90;;;;;;5010828;28;19939;-73
2023/03/11 01:51:27;;;;;;;;;;;11.10;51.00;;;;;;5020660;28;19921;-73
2023/03/11 01:53:52;;;;;;;;;;;11.10;51.10;;;;;;5036627;28;19913;-73
2023/03/11 01:56:18;;;;;;;;;;;11.10;51.10;;;;;;5017273;28;20020;-73
2023/03/11 01:58:44;;;;;;;;;;;11.10;51.20;;;;;;5010796;28;19922;-73
2023/03/11 02:01:10;;;;;;;;;;;11.10;51.20;;;;;;5014424;28;20340;-73
2023/03/11 02:03:36;;;;;;;;;;;11.10;51.80;;;;;;5028899;28;19910;-73
2023/03/11 02:06:03;;;;;;;;;;;11.00;51.20;;;;;;5024760;28;19914;-72
2023/03/11 02:08:29;;;;;;;;;;;11.00;51.20;;;;;;5029079;28;19917;-73
2023/03/11 02:10:54;;;;;;;;;;;11.00;51.20;;;;;;5009574;28;20420;-73
2023/03/11 02:13:19;;;;;;;;;;;11.10;51.10;;;;;;4993826;28;20016;-73
2023/03/11 02:15:45;;;;;;;;;;;11.30;50.70;;;;;;4997866;28;19914;-74
2023/03/11 02:18:13;;;;;;;;;;;11.60;50.10;;;;;;5001737;28;19920;-73
2023/03/11 02:20:57;;;;;;;;;;;11.90;49.60;;;;;;5006969;28;19921;-74
2023/03/11 02:23:24;;;;;;;;;;;12.10;49.00;;;;;;5019302;28;20000;-74
2023/03/11 02:25:55;;;;;;;;;;;12.30;48.50;;;;;;5015598;28;20408;-73
2023/03/11 02:28:20;;;;;;;;;;;12.60;48.00;;;;;;4997434;28;19928;-73
2023/03/11 02:30:45;;;;;;;;;;;13.10;47.20;;;;;;5028719;28;19909;-73
2023/03/11 02:33:11;;;;;;;;;;;13.60;45.90;;;;;;5029212;27;20004;-73
2023/03/11 02:35:36;;;;;;;;;;;14.10;45.00;;;;;;4998522;28;19917;-74
2023/03/11 02:38:02;;;;;;;;;;;14.60;44.20;;;;;;5009095;28;20027;-74
2023/03/11 02:40:32;;;;;;;;;;;15.00;43.20;;;;;;5009300;28;20142;-74
2023/03/11 02:43:02;;;;;;;;;;;15.40;42.60;;;;;;5009394;28;19918;-74
2023/03/11 02:45:28;;;;;;;;;;;15.70;42.10;;;;;;5011764;28;19917;-73
2023/03/11 02:47:54;;;;;;;;;;;16.00;41.60;;;;;;5028044;28;20003;-73
2023/03/11 02:50:19;;;;;;;;;;;16.30;41.20;;;;;;5009690;28;19953;-73
2023/03/11 02:52:45;;;;;;;;;;;16.50;40.80;;;;;;5008923;28;20420;-74
2023/03/11 02:55:10;;;;;;;;;;;16.70;40.50;;;;;;5000294;28;20328;-74
2023/03/11 02:57:36;;;;;;;;;;;16.90;40.30;;;;;;5010570;28;19916;-74
2023/03/11 03:00:09;;;;;;;;;;;17.00;40.00;;;;;;5010129;28;19914;-74
2023/03/11 03:02:35;;;;;;;;;;;17.20;39.80;;;;;;5034842;27;19917;-74
2023/03/11 03:05:00;;;;;;;;;;;17.20;39.70;;;;;;5061094;27;19918;-74
2023/03/11 03:07:26;;;;;;;;;;;17.30;39.70;;;;;;5039515;27;19966;-74
2023/03/11 03:09:51;;;;;;;;;;;17.40;39.50;;;;;;5013488;28;19977;-74
2023/03/11 03:12:16;;;;;;;;;;;17.50;39.50;;;;;;5012482;28;19948;-73
2023/03/11 03:14:42;;;;;;;;;;;17.50;39.50;;;;;;5028825;28;19913;-73
2023/03/11 03:17:07;;;;;;;;;;;17.60;39.60;;;;;;5014645;28;20132;-74
2023/03/11 03:19:33;;;;;;;;;;;17.60;39.60;;;;;;5009192;28;20394;-74
2023/03/11 03:21:58;;;;;;;;;;;17.70;39.50;;;;;;5009428;28;20317;-74
2023/03/11 03:24:24;;;;;;;;;;;17.80;39.40;;;;;;4993295;28;20370;-74
2023/03/11 03:26:50;;;;;;;;;;;17.80;39.30;;;;;;5016034;28;20273;-74
2023/03/11 03:29:16;;;;;;;;;;;17.80;39.30;;;;;;5027403;28;19921;-74
2023/03/11 03:31:41;;;;;;;;;;;17.80;39.30;;;;;;5018510;28;19913;-74
2023/03/11 03:34:07;;;;;;;;;;;17.80;39.50;;;;;;5028824;28;19913;-74
2023/03/11 03:36:32;;;;;;;;;;;17.80;39.60;;;;;;5019674;28;20366;-74
2023/03/11 03:38:58;;;;;;;;;;;17.70;39.70;;;;;;5009189;28;19917;-74
2023/03/11 03:41:24;;;;;;;;;;;17.70;39.80;;;;;;5013039;28;20000;-73
2023/03/11 03:43:49;;;;;;;;;;;17.60;39.80;;;;;;5027813;28;19948;-74
2023/03/11 03:46:15;;;;;;;;;;;17.60;40.00;;;;;;5021083;28;19916;-74
2023/03/11 03:48:40;;;;;;;;;;;17.50;40.00;;;;;;5008867;28;20285;-74
2023/03/11 03:51:06;;;;;;;;;;;17.50;40.20;;;;;;5012718;28;19917;-74
2023/03/11 03:53:32;;;;;;;;;;;17.50;40.30;;;;;;4999640;28;19913;-74
2023/03/11 03:56:00;;;;;;;;;;;17.50;40.30;;;;;;5008138;28;19910;-74
2023/03/11 03:58:26;;;;;;;;;;;17.60;40.20;;;;;;5010216;28;20288;-74
2023/03/11 04:00:54;;;;;;;;;;;17.70;40.00;;;;;;5019100;28;19917;-74
2023/03/11 04:03:19;;;;;;;;;;;17.80;39.90;;;;;;5029424;28;19969;-74
2023/03/11 04:05:45;;;;;;;;;;;17.90;39.80;;;;;;5026062;28;19917;-74
2023/03/11 04:08:11;;;;;;;;;;;17.90;39.80;;;;;;5007347;28;19921;-74
2023/03/11 04:10:36;;;;;;;;;;;17.90;39.60;;;;;;4991757;28;19953;-74
2023/03/11 04:13:02;;;;;;;;;;;18.10;39.60;;;;;;5010525;28;19941;-74
2023/03/11 04:15:27;;;;;;;;;;;18.10;39.60;;;;;;5011371;28;19916;-74
2023/03/11 04:17:53;;;;;;;;;;;18.00;39.60;;;;;;5024420;28;19920;-74
2023/03/11 04:20:18;;;;;;;;;;;18.00;40.50;;;;;;5028244;28;19917;-74
2023/03/11 04:22:44;;;;;;;;;;;17.90;39.80;;;;;;5008385;28;20305;-73
2023/03/11 04:25:09;;;;;;;;;;;17.90;39.90;;;;;;4994914;28;20059;-74
2023/03/11 04:27:37;;;;;;;;;;;17.90;40.00;;;;;;5012580;28;19932;-74
2023/03/11 04:30:03;;;;;;;;;;;17.90;40.10;;;;;;5030465;28;19961;-74
2023/03/11 04:32:28;;;;;;;;;;;17.90;40.10;;;;;;5011365;28;19924;-74
2023/03/11 04:34:54;;;;;;;;;;;17.90;40.10;;;;;;5015583;28;19917;-74
2023/03/11 04:37:19;;;;;;;;;;;17.90;40.00;;;;;;5012066;28;19917;-74
2023/03/11 04:39:45;;;;;;;;;;;17.90;40.10;;;;;;5017859;28;19913;-74
2023/03/11 04:42:12;;;;;;;;;;;17.90;40.00;;;;;;5010855;28;19921;-73
2023/03/11 04:44:38;;;;;;;;;;;18.00;40.00;;;;;;5001137;28;19920;-73
2023/03/11 04:47:03;;;;;;;;;;;18.10;39.80;;;;;;5028732;28;19917;-73
2023/03/11 04:49:29;;;;;;;;;;;18.20;39.80;;;;;;5010520;28;19914;-73
2023/03/11 04:51:54;;;;;;;;;;;18.30;39.60;;;;;;5011054;28;19917;-72
2023/03/11 04:54:20;;;;;;;;;;;18.30;39.50;;;;;;5021928;28;19913;-74
2023/03/11 04:56:45;;;;;;;;;;;18.30;39.50;;;;;;5011204;28;19914;-74
2023/03/11 04:59:11;;;;;;;;;;;18.20;39.90;;;;;;5016817;28;20386;-75
2023/03/11 05:01:36;;;;;;;;;;;18.00;40.10;;;;;;5012832;28;20347;-75
2023/03/11 05:04:02;;;;;;;;;;;18.00;40.30;;;;;;5031104;28;19909;-74
2023/03/11 05:06:27;;;;;;;;;;;17.90;40.40;;;;;;5023751;28;19932;-74
2023/03/11 05:08:53;;;;;;;;;;;17.90;40.50;;;;;;5000213;28;19918;-74
2023/03/11 05:11:18;;;;;;;;;;;17.90;40.50;;;;;;5009965;28;19925;-74
2023/03/11 05:13:44;;;;;;;;;;;17.90;40.40;;;;;;4998460;28;20422;-74
2023/03/11 05:16:09;;;;;;;;;;;18.00;40.40;;;;;;5010706;28;19917;-74
2023/03/11 05:18:35;;;;;;;;;;;17.90;40.40;;;;;;5018952;28;19913;-74
2023/03/11 05:21:00;;;;;;;;;;;17.90;40.60;;;;;;5029967;28;19913;-75
2023/03/11 05:23:26;;;;;;;;;;;17.80;40.70;;;;;;5020733;28;20369;-74
2023/03/11 05:25:51;;;;;;;;;;;17.90;40.70;;;;;;5027563;28;19913;-74
2023/03/11 05:28:16;;;;;;;;;;;18.00;40.60;;;;;;5024869;28;19917;-75
2023/03/11 05:30:42;;;;;;;;;;;18.00;40.40;;;;;;5088981;28;19921;-75
2023/03/11 05:33:07;;;;;;;;;;;18.10;40.30;;;;;;5010647;28;19910;-74
2023/03/11 05:35:33;;;;;;;;;;;18.20;40.20;;;;;;5010489;28;19921;-74
2023/03/11 05:37:58;;;;;;;;;;;18.40;40.00;;;;;;5019605;28;19970;-74
2023/03/11 05:40:24;;;;;;;;;;;18.50;39.80;;;;;;5029132;28;19917;-74
2023/03/11 05:42:50;;;;;;;;;;;18.50;39.90;;;;;;5020094;28;19917;-74
2023/03/11 05:45:16;;;;;;;;;;;18.40;39.90;;;;;;5024365;28;19969;-73
2023/03/11 05:47:41;;;;;;;;;;;18.40;40.00;;;;;;5021032;28;20370;-73
2023/03/11 05:50:07;;;;;;;;;;;18.40;40.10;;;;;;4994174;28;19910;-74
2023/03/11 05:52:33;;;;;;;;;;;18.40;40.00;;;;;;5010793;28;19922;-74
2023/03/11 05:54:58;;;;;;;;;;;18.40;40.10;;;;;;4993636;28;19985;-73
2023/03/11 05:57:24;;;;;;;;;;;18.40;40.10;;;;;;5009706;28;20399;-73
2023/03/11 05:59:49;;;;;;;;;;;18.40;40.10;;;;;;4997187;28;19917;-74
2023/03/11 06:02:14;;;;;;;;;;;18.40;40.10;;;;;;4999401;28;20051;-74
2023/03/11 06:04:40;;;;;;;;;;;18.40;40.20;;;;;;5029974;28;20285;-73
2023/03/11 06:07:06;;;;;;;;;;;18.40;40.30;;;;;;5010511;28;20281;-73
2023/03/11 06:09:31;;;;;;;;;;;18.20;40.30;;;;;;5013083;28;19924;-74
2023/03/11 06:11:56;;;;;;;;;;;18.20;40.50;;;;;;5011286;28;20323;-73
2023/03/11 06:14:22;;;;;;;;;;;18.30;40.40;;;;;;5010340;28;19909;-73
2023/03/11 06:16:47;;;;;;;;;;;18.40;40.30;;;;;;5022036;28;21052;-74
2023/03/11 06:19:13;;;;;;;;;;;18.40;40.10;;;;;;5011529;28;19948;-73
2023/03/11 06:21:38;;;;;;;;;;;18.60;40.00;;;;;;5009293;28;19925;-73
2023/03/11 06:24:04;;;;;;;;;;;18.70;39.90;;;;;;5028898;28;19975;-73
2023/03/11 06:26:29;;;;;;;;;;;18.70;39.70;;;;;;5028144;28;19913;-73
2023/03/11 06:28:55;;;;;;;;;;;18.80;39.80;;;;;;5004239;28;20025;-73
2023/03/11 06:31:21;;;;;;;;;;;18.70;39.80;;;;;;5015867;28;19913;-73
2023/03/11 06:33:46;;;;;;;;;;;18.80;39.90;;;;;;5024275;28;19924;-73
2023/03/11 06:36:13;;;;;;;;;;;18.70;39.80;;;;;;5014928;28;19913;-73
2023/03/11 06:38:38;;;;;;;;;;;18.70;40.00;;;;;;5026690;28;20016;-73
2023/03/11 06:41:04;;;;;;;;;;;18.60;40.10;;;;;;5027076;28;20026;-74
2023/03/11 06:43:30;;;;;;;;;;;18.70;40.20;;;;;;5029584;28;19913;-74
2023/03/11 06:45:56;;;;;;;;;;;18.50;40.10;;;;;;5008577;28;19913;-73
2023/03/11 06:48:21;;;;;;;;;;;18.30;40.50;;;;;;5009879;28;19944;-73
2023/03/11 06:50:53;;;;;;;;;;;18.20;40.90;;;;;;5017690;28;19924;-73
2023/03/11 06:53:19;;;;;;;;;;;18.10;41.00;;;;;;5009273;28;20621;-73
2023/03/11 06:55:44;;;;;;;;;;;18.10;41.10;;;;;;5003742;28;19913;-73
2023/03/11 06:58:10;;;;;;;;;;;18.30;40.80;;;;;;5015782;28;20013;-73
2023/03/11 07:00:35;;;;;;;;;;;18.40;40.70;;;;;;5006983;28;19923;-72
2023/03/11 07:03:01;;;;;;;;;;;18.40;40.50;;;;;;5023031;28;20451;-73
2023/03/11 07:05:26;;;;;;;;;;;18.40;40.60;;;;;;5002243;28;19940;-73
2023/03/11 07:07:52;;;;;;;;;;;18.20;40.90;;;;;;5028049;28;20002;-73
2023/03/11 07:10:18;;;;;;;;;;;18.20;41.10;;;;;;5026877;28;19966;-73
2023/03/11 07:12:43;;;;;;;;;;;18.30;40.90;;;;;;5023054;28;20383;-73
2023/03/11 07:15:09;;;;;;;;;;;18.30;40.80;;;;;;5009101;28;19937;-73
2023/03/11 07:17:34;;;;;;;;;;;18.40;40.70;;;;;;5007482;28;19924;-73
2023/03/11 07:20:00;;;;;;;;;;;18.50;40.70;;;;;;5016318;28;19959;-73
2023/03/11 07:22:25;;;;;;;;;;;18.40;40.80;;;;;;5011075;28;19966;-73
2023/03/11 07:24:51;;;;;;;;;;;18.40;40.90;;;;;;5023412;28;19914;-73
2023/03/11 07:27:16;;;;;;;;;;;18.40;40.80;;;;;;5000994;28;19921;-72
2023/03/11 07:29:42;;;;;;;;;;;18.50;40.70;;;;;;5008970;28;19913;-73
2023/03/11 07:32:07;;;;;;;;;;;18.50;40.60;;;;;;5000233;28;20358;-73
2023/03/11 07:34:33;;;;;;;;;;;18.60;40.60;;;;;;5008705;28;19917;-74
2023/03/11 07:36:58;;;;;;;;;;;18.60;40.60;;;;;;5018196;28;20037;-73
2023/03/11 07:39:24;;;;;;;;;;;18.50;40.60;;;;;;5008067;28;19924;-72
2023/03/11 07:41:49;;;;;;;;;;;18.50;40.70;;;;;;5008267;28;19914;-72
2023/03/11 07:44:15;;;;;;;;;;;18.60;40.60;;;;;;4997607;28;19913;-73
2023/03/11 07:46:40;;;;;;;;;;;18.70;40.50;;;;;;4991973;28;20297;-73
2023/03/11 07:49:06;;;;;;;;;;;18.80;40.40;;;;;;5012971;28;19921;-73
2023/03/11 07:51:32;;;;;;;;;;;18.80;40.30;;;;;;4995904;28;19909;-73
2023/03/11 07:53:58;;;;;;;;;;;18.90;40.20;;;;;;5001257;28;20425;-73
2023/03/11 07:56:24;;;;;;;;;;;18.90;40.10;;;;;;4995328;28;19913;-74
2023/03/11 07:58:49;;;;;;;;;;;19.00;40.00;;;;;;5008747;28;19924;-73
2023/03/11 08:01:16;;;;;;;;;;;19.10;39.90;;;;;;5021313;28;20386;-73
2023/03/11 08:03:42;;;;;;;;;;;19.20;39.90;;;;;;5014609;28;20002;-73
2023/03/11 08:06:11;;;;;;;;;;;19.20;39.90;;;;;;5012301;28;20396;-73
2023/03/11 08:08:37;;;;;;;;;;;19.10;40.10;;;;;;5021941;28;19964;-73
2023/03/11 08:11:02;;;;;;;;;;;19.10;39.90;;;;;;4995492;28;19957;-74
2023/03/11 08:13:28;;;;;;;;;;;19.10;40.10;;;;;;5014437;28;19913;-74
2023/03/11 08:15:53;;;;;;;;;;;19.00;40.10;;;;;;5012444;28;20252;-74
2023/03/11 08:18:19;;;;;;;;;;;19.00;40.10;;;;;;5014115;28;19960;-74
2023/03/11 08:20:44;;;;;;;;;;;19.10;40.30;;;;;;5021411;28;19966;-75
2023/03/11 08:23:10;;;;;;;;;;;19.00;40.30;;;;;;5009241;28;19917;-75
2023/03/11 08:25:39;;;;;;;;;;;19.00;40.40;;;;;;4999530;28;19939;-73
2023/03/11 08:28:06;;;;;;;;;;;18.90;40.30;;;;;;5000365;28;19925;-74
2023/03/11 08:30:32;;;;;;;;;;;18.90;40.40;;;;;;5013102;28;19914;-73
2023/03/11 08:32:57;;;;;;;;;;;19.00;40.40;;;;;;5013645;27;19921;-74
2023/03/11 08:35:23;;;;;;;;;;;19.00;40.30;;;;;;5025119;28;19948;-74
2023/03/11 08:37:48;;;;;;;;;;;19.10;40.30;;;;;;5014693;28;19913;-75
2023/03/11 08:40:14;;;;;;;;;;;19.20;40.20;;;;;;5014464;28;20012;-74
2023/03/11 08:42:39;;;;;;;;;;;19.20;40.10;;;;;;4999528;28;20378;-74
2023/03/11 08:45:05;;;;;;;;;;;19.30;40.10;;;;;;5004834;28;20306;-73
2023/03/11 08:47:35;;;;;;;;;;;19.40;40.00;;;;;;5025603;28;19921;-74
2023/03/11 08:50:01;;;;;;;;;;;19.30;40.30;;;;;;5024315;28;20383;-74
2023/03/11 08:52:26;;;;;;;;;;;19.20;40.30;;;;;;5009751;28;19933;-73
2023/03/11 08:54:52;;;;;;;;;;;19.20;40.50;;;;;;5031316;28;19920;-73
2023/03/11 08:57:17;;;;;;;;;;;19.30;40.30;;;;;;5021325;28;19916;-73
2023/03/11 08:59:43;;;;;;;;;;;19.40;40.10;;;;;;4998183;28;20000;-73
2023/03/11 09:02:09;;;;;;;;;;;19.60;39.90;;;;;;5015917;28;20571;-73
2023/03/11 09:04:34;;;;;;;;;;;19.70;39.70;;;;;;5027266;28;19913;-73
2023/03/11 09:07:00;;;;;;;;;;;19.80;39.60;;;;;;5020375;28;20430;-73
2023/03/11 09:09:25;;;;;;;;;;;19.80;39.60;;;;;;5020384;28;19924;-74
2023/03/11 09:11:51;;;;;;;;;;;19.80;39.60;;;;;;4995267;28;19921;-73
2023/03/11 09:14:16;;;;;;;;;;;19.90;39.60;;;;;;5015117;28;20294;-73
2023/03/11 09:16:42;;;;;;;;;;;20.10;39.20;;;;;;5016143;28;19913;-73
2023/03/11 09:19:07;;;;;;;;;;;20.10;39.80;;;;;;4998256;28;19932;-73
2023/03/11 09:21:33;;;;;;;;;;;20.20;39.20;;;;;;5012686;28;19913;-74
2023/03/11 09:23:59;;;;;;;;;;;20.30;39.10;;;;;;5008072;28;19916;-73
2023/03/11 09:26:24;;;;;;;;;;;20.30;39.10;;;;;;5020204;28;19999;-73
2023/03/11 09:28:50;;;;;;;;;;;20.30;39.20;;;;;;5010339;28;19917;-73
2023/03/11 09:31:15;;;;;;;;;;;20.40;39.50;;;;;;5015518;28;19913;-75
2023/03/11 09:33:41;;;;;;;;;;;20.30;40.00;;;;;;5029174;28;19967;-74
2023/03/11 09:36:07;;;;;;;;;;;20.40;40.10;;;;;;5011964;28;19923;-73
2023/03/11 09:38:32;;;;;;;;;;;20.40;40.00;;;;;;4995226;28;20008;-73
2023/03/11 09:41:04;;;;;;;;;;;20.40;39.80;;;;;;5004790;28;19935;-73
2023/03/11 09:43:33;;;;;;;;;;;20.40;40.10;;;;;;5010535;28;19971;-73
2023/03/11 09:46:05;;;;;;;;;;;20.30;40.20;;;;;;5010884;28;20388;-74
2023/03/11 09:48:31;;;;;;;;;;;20.20;40.10;;;;;;5012565;28;19987;-74
2023/03/11 09:50:57;;;;;;;;;;;20.20;40.60;;;;;;5018842;28;19921;-75
2023/03/11 09:53:38;;;;;;;;;;;20.10;40.90;;;;;;5018182;28;19914;-75
2023/03/11 09:56:04;;;;;;;;;;;20.00;40.90;;;;;;5012984;28;19923;-74
2023/03/11 09:58:33;;;;;;;;;;;20.00;41.10;;;;;;5009926;28;19966;-74
2023/03/11 10:00:58;;;;;;;;;;;20.00;42.00;;;;;;5019106;28;20391;-75
2023/03/11 10:03:25;;;;;;;;;;;20.00;41.50;;;;;;4998860;28;19928;-74
2023/03/11 10:05:50;;;;;;;;;;;19.90;41.90;;;;;;5001946;28;20407;-75
2023/03/11 10:08:36;;;;;;;;;;;19.90;42.10;;;;;;5006090;28;19977;-75
2023/03/11 10:11:09;;;;;;;;;;;19.90;42.00;;;;;;5019813;28;20010;-75
2023/03/11 10:13:40;;;;;;;;;;;20.00;42.10;;;;;;5016818;28;19982;-75
2023/03/11 10:16:12;;;;;;;;;;;20.00;42.00;;;;;;5013263;28;19916;-76
2023/03/11 10:18:46;;;;;;;;;;;20.10;41.90;;;;;;5025201;28;19920;-75
2023/03/11 10:21:16;;;;;;;;;;;20.30;41.80;;;;;;5022282;28;19914;-75
2023/03/11 10:24:20;;;;;;;;;;;20.30;41.60;;;;;;5013497;28;20335;-75
2023/03/11 10:26:47;;;;;;;;;;;20.40;41.80;;;;;;4965136;28;19922;-74
2023/03/11 10:29:12;;;;;;;;;;;20.40;42.30;;;;;;5010208;28;19952;-74
2023/03/11 10:31:44;;;;;;;;;;;20.30;41.50;;;;;;4979517;28;19910;-74
2023/03/11 10:34:20;;;;;;;;;;;20.40;41.30;;;;;;5023507;28;19966;-75
2023/03/11 10:36:57;;;;;;;;;;;20.50;41.30;;;;;;5020506;28;19914;-74
2023/03/11 10:39:22;;;;;;;;;;;20.50;41.10;;;;;;5013065;28;19909;-74
2023/03/11 10:41:49;;;;;;;;;;;20.60;41.10;;;;;;5028916;28;19969;-75
2023/03/11 10:44:18;;;;;;;;;;;20.60;41.10;;;;;;5012898;28;19913;-74
2023/03/11 10:46:44;;;;;;;;;;;20.40;41.30;;;;;;5007994;28;20330;-74
2023/03/11 10:49:16;;;;;;;;;;;20.20;41.40;;;;;;4992682;28;20097;-74
2023/03/11 10:51:45;;;;;;;;;;;20.30;41.50;;;;;;4993173;28;19910;-74
2023/03/11 10:54:21;;;;;;;;;;;20.30;41.50;;;;;;5016755;28;19920;-75
2023/03/11 10:56:48;;;;;;;;;;;20.30;41.50;;;;;;5010074;28;19913;-74
2023/03/11 10:59:20;;;;;;;;;;;20.40;41.30;;;;;;5020808;28;19913;-74
2023/03/11 11:01:52;;;;;;;;;;;20.50;41.10;;;;;;5026908;28;19945;-75
2023/03/11 11:04:22;;;;;;;;;;;20.70;40.80;;;;;;5015669;28;19936;-76
2023/03/11 11:06:48;;;;;;;;;;;20.70;40.80;;;;;;5017323;28;20365;-75
2023/03/11 11:09:20;;;;;;;;;;;20.70;40.70;;;;;;5008831;28;19917;-75
2023/03/11 11:12:05;;;;;;;;;;;20.70;40.60;;;;;;5008609;28;19914;-75
2023/03/11 11:14:44;;;;;;;;;;;20.70;40.70;;;;;;5008628;28;19913;-74
2023/03/11 11:17:16;;;;;;;;;;;20.50;41.00;;;;;;5009686;28;20405;-75
2023/03/11 11:19:45;;;;;;;;;;;20.50;41.10;;;;;;5010619;28;19952;-74
2023/03/11 11:22:12;;;;;;;;;;;20.40;41.40;;;;;;5008943;28;19914;-74
2023/03/11 11:24:37;;;;;;;;;;;20.40;41.30;;;;;;5012526;28;19920;-76
2023/03/11 11:27:03;;;;;;;;;;;20.40;41.10;;;;;;5019868;28;19913;-74
2023/03/11 11:29:29;;;;;;;;;;;20.50;41.00;;;;;;5017870;28;20014;-75
2023/03/11 11:32:08;;;;;;;;;;;20.50;40.90;;;;;;5021627;28;20005;-75
2023/03/11 11:34:34;;;;;;;;;;;20.60;40.80;;;;;;5001042;28;19956;-75
2023/03/11 11:37:00;;;;;;;;;;;20.60;40.70;;;;;;5021260;28;19998;-74
2023/03/11 11:39:27;;;;;;;;;;;20.70;40.50;;;;;;5006169;28;20039;-74
2023/03/11 11:41:52;;;;;;;;;;;20.80;40.40;;;;;;5006931;28;19914;-76
2023/03/11 11:44:18;;;;;;;;;;;20.90;40.30;;;;;;5007848;28;19914;-74
2023/03/11 11:47:08;;;;;;;;;;;21.00;40.20;;;;;;4994546;28;20055;-74
2023/03/11 11:49:34;;;;;;;;;;;21.10;40.20;;;;;;5001143;28;19975;-75
2023/03/11 11:52:05;;;;;;;;;;;21.00;40.20;;;;;;5010696;28;20325;-74
2023/03/11 11:54:57;;;;;;;;;;;21.00;40.30;;;;;;5016983;28;19973;-75
2023/03/11 11:57:22;;;;;;;;;;;21.00;40.20;;;;;;5024810;28;19917;-74
2023/03/11 11:59:48;;;;;;;;;;;20.90;40.40;;;;;;5025531;28;19917;-74
2023/03/11 12:02:22;;;;;;;;;;;20.90;40.40;;;;;;5018986;28;19914;-75
2023/03/11 12:04:50;;;;;;;;;;;20.80;40.50;;;;;;5019051;28;19920;-75
2023/03/11 12:07:34;;;;;;;;;;;20.70;40.50;;;;;;5027544;28;19917;-75
2023/03/11 12:10:29;;;;;;;;;;;20.90;40.50;;;;;;5029126;28;19929;-74
2023/03/11 12:13:13;;;;;;;;;;;21.00;40.20;;;;;;5021151;28;20007;-74
2023/03/11 12:15:52;;;;;;;;;;;21.20;40.10;;;;;;5010371;28;19914;-74
2023/03/11 12:18:34;;;;;;;;;;;21.30;40.10;;;;;;5011329;28;19917;-74
2023/03/11 12:20:59;;;;;;;;;;;21.30;39.80;;;;;;5021430;28;19929;-74
2023/03/11 12:23:26;;;;;;;;;;;21.20;39.80;;;;;;4997082;28;19913;-74
2023/03/11 12:25:51;;;;;;;;;;;21.10;40.00;;;;;;5009140;28;19941;-74
2023/03/11 12:28:36;;;;;;;;;;;21.10;40.30;;;;;;5010123;28;19968;-74
2023/03/11 12:31:02;;;;;;;;;;;21.10;40.20;;;;;;5007201;28;19982;-74
2023/03/11 12:33:41;;;;;;;;;;;21.10;40.10;;;;;;5027995;28;20347;-74
2023/03/11 12:36:16;;;;;;;;;;;21.10;40.00;;;;;;5030918;28;19914;-74
2023/03/11 12:38:44;;;;;;;;;;;21.10;40.00;;;;;;5022088;28;19963;-74
2023/03/11 12:41:13;;;;;;;;;;;21.20;40.00;;;;;;5013082;28;20412;-74
2023/03/11 12:43:41;;;;;;;;;;;21.30;39.80;;;;;;5023659;28;20324;-74
2023/03/11 12:46:07;;;;;;;;;;;21.40;39.60;;;;;;5030099;28;19909;-74
2023/03/11 12:48:32;;;;;;;;;;;21.40;39.60;;;;;;5010636;28;19924;-74
2023/03/11 12:50:58;;;;;;;;;;;21.50;39.50;;;;;;5011259;28;19974;-74
2023/03/11 12:53:42;;;;;;;;;;;21.50;39.40;;;;;;4994940;28;19909;-74
2023/03/11 12:56:26;;;;;;;;;;;21.60;39.10;;;;;;5012233;28;19954;-75
2023/03/11 12:59:04;;;;;;;;;;;21.70;39.00;;;;;;5011458;28;19913;-74
2023/03/11 13:01:55;;;;;;;;;;;21.70;38.90;;;;;;5009748;28;19922;-74
2023/03/11 13:04:26;;;;;;;;;;;21.70;38.90;;;;;;5025106;28;20002;-75
2023/03/11 13:06:59;;;;;;;;;;;21.60;39.00;;;;;;5009855;28;20366;-75
2023/03/11 13:09:25;;;;;;;;;;;21.70;39.00;;;;;;5015734;27;20003;-75
2023/03/11 13:11:50;;;;;;;;;;;21.70;39.00;;;;;;5009963;28;19996;-74
2023/03/11 13:14:27;;;;;;;;;;;21.70;39.00;;;;;;5014140;28;19921;-74
2023/03/11 13:16:52;;;;;;;;;;;21.70;39.10;;;;;;5033797;28;19970;-75
2023/03/11 13:19:33;;;;;;;;;;;21.70;39.20;;;;;;4992889;28;19917;-74
2023/03/11 13:22:00;;;;;;;;;;;21.60;39.10;;;;;;5012430;28;20031;-75
2023/03/11 13:24:26;;;;;;;;;;;21.70;39.00;;;;;;5002015;28;19913;-75
2023/03/11 13:26:55;;;;;;;;;;;21.70;39.10;;;;;;5012353;28;19917;-75
2023/03/11 13:29:23;;;;;;;;;;;21.70;39.10;;;;;;5027871;28;19988;-75
2023/03/11 13:31:52;;;;;;;;;;;21.80;38.90;;;;;;5011306;28;19945;-74
2023/03/11 13:34:26;;;;;;;;;;;21.90;38.80;;;;;;5064150;28;19913;-74
2023/03/11 13:37:05;;;;;;;;;;;21.80;38.70;;;;;;5020508;28;20282;-74
2023/03/11 13:39:33;;;;;;;;;;;21.90;39.10;;;;;;5016140;28;20012;-74
2023/03/11 13:41:58;;;;;;;;;;;21.80;38.70;;;;;;5029932;28;19957;-74
2023/03/11 13:44:34;;;;;;;;;;;21.80;38.70;;;;;;5030608;28;19917;-74
2023/03/11 13:47:04;;;;;;;;;;;21.80;38.90;;;;;;5021326;28;19917;-74
2023/03/11 13:49:30;;;;;;;;;;;21.80;38.80;;;;;;5030382;28;19917;-75
2023/03/11 13:51:56;;;;;;;;;;;21.80;38.70;;;;;;5021770;28;20413;-75
2023/03/11 13:54:40;;;;;;;;;;;21.90;38.70;;;;;;5004676;28;20351;-74
2023/03/11 13:57:10;;;;;;;;;;;21.90;38.60;;;;;;5012996;28;19921;-74
2023/03/11 13:59:35;;;;;;;;;;;21.90;38.60;;;;;;5010648;28;19918;-74
2023/03/11 14:02:07;;;;;;;;;;;21.90;38.70;;;;;;4998612;28;20054;-74
2023/03/11 14:04:34;;;;;;;;;;;21.80;39.00;;;;;;5025570;28;19917;-74
2023/03/11 14:07:10;;;;;;;;;;;21.70;39.10;;;;;;5004759;28;19921;-74
2023/03/11 14:09:36;;;;;;;;;;;21.80;39.20;;;;;;5009455;28;20065;-74
2023/03/11 14:12:06;;;;;;;;;;;21.70;39.00;;;;;;5013095;28;19997;-74
2023/03/11 14:14:41;;;;;;;;;;;21.70;39.10;;;;;;5006914;28;20043;-74
2023/03/11 14:17:09;;;;;;;;;;;21.80;38.90;;;;;;5010306;28;19910;-74
2023/03/11 14:19:35;;;;;;;;;;;21.80;38.70;;;;;;5009922;28;20382;-74
2023/03/11 14:22:01;;;;;;;;;;;21.90;38.50;;;;;;5009970;28;20063;-74